sensor_id;sensor_type;location;lat;lon;timestamp;pressure;altitude;pressure_sealevel;temperature;humidity
36514;BME280;66331;46.796;9.824;2023-02-01T00:00:31;84978.00;;;-4.21;42.05
36514;BME280;66331;46.796;9.824;2023-02-01T00:02:58;84975.17;;;-3.95;40.70
36514;BME280;66331;46.796;9.824;2023-02-01T00:05:25;84973.73;;;-3.95;40.63
36514;BME280;66331;46.796;9.824;2023-02-01T00:07:52;84975.64;;;-4.17;41.17
36514;BME280;66331;46.796;9.824;2023-02-01T00:10:19;84977.91;;;-3.72;40.55
36514;BME280;66331;46.796;9.824;2023-02-01T00:12:46;84976.00;;;-4.59;41.11
36514;BME280;66331;46.796;9.824;2023-02-01T00:15:14;84975.82;;;-4.93;42.42
36514;BME280;66331;46.796;9.824;2023-02-01T00:17:41;84967.70;;;-3.53;40.32
36514;BME280;66331;46.796;9.824;2023-02-01T00:20:09;84967.04;;;-5.47;43.42
36514;BME280;66331;46.796;9.824;2023-02-01T00:22:36;84970.53;;;-4.39;41.81
36514;BME280;66331;46.796;9.824;2023-02-01T00:25:05;84965.91;;;-3.95;41.76
36514;BME280;66331;46.796;9.824;2023-02-01T00:27:32;84963.62;;;-4.89;41.44
36514;BME280;66331;46.796;9.824;2023-02-01T00:29:59;84966.75;;;-5.20;43.56
36514;BME280;66331;46.796;9.824;2023-02-01T00:32:26;84969.40;;;-5.08;42.66
36514;BME280;66331;46.796;9.824;2023-02-01T00:34:53;84966.55;;;-4.65;41.43
36514;BME280;66331;46.796;9.824;2023-02-01T00:37:20;84965.23;;;-5.79;43.79
36514;BME280;66331;46.796;9.824;2023-02-01T00:39:47;84965.77;;;-4.96;42.43
36514;BME280;66331;46.796;9.824;2023-02-01T00:42:14;84965.61;;;-4.81;42.39
36514;BME280;66331;46.796;9.824;2023-02-01T00:44:41;84962.88;;;-4.20;40.87
36514;BME280;66331;46.796;9.824;2023-02-01T00:47:08;84962.62;;;-4.57;41.26
36514;BME280;66331;46.796;9.824;2023-02-01T00:49:35;84965.32;;;-5.35;41.61
36514;BME280;66331;46.796;9.824;2023-02-01T00:52:03;84966.53;;;-5.40;41.47
36514;BME280;66331;46.796;9.824;2023-02-01T00:54:30;84964.01;;;-4.80;41.39
36514;BME280;66331;46.796;9.824;2023-02-01T00:56:57;84960.15;;;-5.17;42.01
36514;BME280;66331;46.796;9.824;2023-02-01T00:59:24;84962.69;;;-5.07;42.45
36514;BME280;66331;46.796;9.824;2023-02-01T01:01:51;84963.53;;;-4.35;41.06
36514;BME280;66331;46.796;9.824;2023-02-01T01:04:19;84965.88;;;-5.95;43.48
36514;BME280;66331;46.796;9.824;2023-02-01T01:06:46;84968.15;;;-6.69;44.66
36514;BME280;66331;46.796;9.824;2023-02-01T01:09:13;84961.17;;;-6.54;44.96
36514;BME280;66331;46.796;9.824;2023-02-01T01:11:40;84951.05;;;-6.04;43.39
36514;BME280;66331;46.796;9.824;2023-02-01T01:14:09;84945.63;;;-4.83;41.55
36514;BME280;66331;46.796;9.824;2023-02-01T01:16:38;84948.25;;;-4.93;41.60
36514;BME280;66331;46.796;9.824;2023-02-01T01:19:10;84940.23;;;-4.41;41.18
36514;BME280;66331;46.796;9.824;2023-02-01T01:21:38;84946.75;;;-4.62;41.26
36514;BME280;66331;46.796;9.824;2023-02-01T01:24:06;84949.58;;;-5.09;41.51
36514;BME280;66331;46.796;9.824;2023-02-01T01:26:34;84940.31;;;-5.16;41.94
36514;BME280;66331;46.796;9.824;2023-02-01T01:29:01;84936.80;;;-4.89;41.59
36514;BME280;66331;46.796;9.824;2023-02-01T01:31:30;84939.03;;;-4.67;41.87
36514;BME280;66331;46.796;9.824;2023-02-01T01:33:59;84935.45;;;-4.83;41.19
36514;BME280;66331;46.796;9.824;2023-02-01T01:36:27;84934.52;;;-4.53;40.67
36514;BME280;66331;46.796;9.824;2023-02-01T01:38:56;84939.23;;;-7.03;45.13
36514;BME280;66331;46.796;9.824;2023-02-01T01:41:27;84936.61;;;-5.93;43.69
36514;BME280;66331;46.796;9.824;2023-02-01T01:43:57;84932.13;;;-5.34;42.95
36514;BME280;66331;46.796;9.824;2023-02-01T01:46:27;84929.20;;;-5.52;43.07
36514;BME280;66331;46.796;9.824;2023-02-01T01:49:03;84926.30;;;-5.91;42.88
36514;BME280;66331;46.796;9.824;2023-02-01T01:51:36;84924.72;;;-5.68;41.79
36514;BME280;66331;46.796;9.824;2023-02-01T01:54:08;84923.90;;;-6.63;44.45
36514;BME280;66331;46.796;9.824;2023-02-01T01:56:38;84918.99;;;-6.32;44.07
36514;BME280;66331;46.796;9.824;2023-02-01T01:59:06;84920.72;;;-5.72;42.65
36514;BME280;66331;46.796;9.824;2023-02-01T02:01:35;84913.39;;;-6.03;42.59
36514;BME280;66331;46.796;9.824;2023-02-01T02:04:03;84911.54;;;-6.35;43.52
36514;BME280;66331;46.796;9.824;2023-02-01T02:06:40;84902.17;;;-5.38;41.44
36514;BME280;66331;46.796;9.824;2023-02-01T02:09:10;84897.73;;;-4.62;41.00
36514;BME280;66331;46.796;9.824;2023-02-01T02:11:38;84901.94;;;-6.30;43.60
36514;BME280;66331;46.796;9.824;2023-02-01T02:14:08;84903.96;;;-7.45;45.21
36514;BME280;66331;46.796;9.824;2023-02-01T02:16:52;84900.41;;;-7.12;44.95
36514;BME280;66331;46.796;9.824;2023-02-01T02:19:40;84897.78;;;-6.06;42.94
36514;BME280;66331;46.796;9.824;2023-02-01T02:22:38;84895.90;;;-6.37;42.90
36514;BME280;66331;46.796;9.824;2023-02-01T02:25:55;84889.28;;;-6.57;43.63
36514;BME280;66331;46.796;9.824;2023-02-01T02:29:09;84886.68;;;-6.26;43.17
36514;BME280;66331;46.796;9.824;2023-02-01T02:32:07;84881.45;;;-6.43;43.47
36514;BME280;66331;46.796;9.824;2023-02-01T02:34:43;84876.75;;;-7.19;44.16
36514;BME280;66331;46.796;9.824;2023-02-01T02:37:22;84874.96;;;-6.77;44.38
36514;BME280;66331;46.796;9.824;2023-02-01T02:39:58;84872.80;;;-6.97;43.57
36514;BME280;66331;46.796;9.824;2023-02-01T02:42:38;84867.74;;;-6.30;41.81
36514;BME280;66331;46.796;9.824;2023-02-01T02:45:10;84869.43;;;-6.85;43.07
36514;BME280;66331;46.796;9.824;2023-02-01T02:47:44;84874.43;;;-7.12;44.40
36514;BME280;66331;46.796;9.824;2023-02-01T02:50:18;84870.36;;;-6.96;43.86
36514;BME280;66331;46.796;9.824;2023-02-01T02:52:56;84872.38;;;-6.31;42.79
36514;BME280;66331;46.796;9.824;2023-02-01T02:55:28;84871.49;;;-6.54;42.75
36514;BME280;66331;46.796;9.824;2023-02-01T02:57:56;84870.13;;;-6.41;42.11
36514;BME280;66331;46.796;9.824;2023-02-01T03:00:28;84872.44;;;-7.43;44.14
36514;BME280;66331;46.796;9.824;2023-02-01T03:02:56;84869.16;;;-6.82;43.23
36514;BME280;66331;46.796;9.824;2023-02-01T03:05:23;84869.95;;;-7.16;43.46
36514;BME280;66331;46.796;9.824;2023-02-01T03:07:57;84870.24;;;-7.16;43.56
36514;BME280;66331;46.796;9.824;2023-02-01T03:10:36;84872.59;;;-6.87;42.79
36514;BME280;66331;46.796;9.824;2023-02-01T03:13:09;84875.19;;;-7.03;42.47
36514;BME280;66331;46.796;9.824;2023-02-01T03:15:41;84868.75;;;-6.63;41.72
36514;BME280;66331;46.796;9.824;2023-02-01T03:18:13;84868.39;;;-6.81;42.78
36514;BME280;66331;46.796;9.824;2023-02-01T03:20:46;84865.03;;;-5.98;40.96
36514;BME280;66331;46.796;9.824;2023-02-01T03:23:18;84860.89;;;-7.45;42.99
36514;BME280;66331;46.796;9.824;2023-02-01T03:25:48;84861.20;;;-7.65;44.06
36514;BME280;66331;46.796;9.824;2023-02-01T03:28:18;84861.44;;;-7.10;43.04
36514;BME280;66331;46.796;9.824;2023-02-01T03:30:48;84865.41;;;-7.24;42.14
36514;BME280;66331;46.796;9.824;2023-02-01T03:33:17;84867.56;;;-7.90;43.42
36514;BME280;66331;46.796;9.824;2023-02-01T03:35:50;84867.43;;;-7.07;42.29
36514;BME280;66331;46.796;9.824;2023-02-01T03:38:24;84869.16;;;-7.42;43.54
36514;BME280;66331;46.796;9.824;2023-02-01T03:40:57;84866.38;;;-6.69;42.95
36514;BME280;66331;46.796;9.824;2023-02-01T03:43:30;84862.80;;;-6.86;42.10
36514;BME280;66331;46.796;9.824;2023-02-01T03:46:03;84862.92;;;-7.40;43.61
36514;BME280;66331;46.796;9.824;2023-02-01T03:48:32;84865.43;;;-7.93;43.85
36514;BME280;66331;46.796;9.824;2023-02-01T03:51:02;84863.88;;;-7.12;42.75
36514;BME280;66331;46.796;9.824;2023-02-01T03:53:32;84867.59;;;-7.03;42.67
36514;BME280;66331;46.796;9.824;2023-02-01T03:56:00;84870.09;;;-7.34;43.49
36514;BME280;66331;46.796;9.824;2023-02-01T03:58:27;84870.73;;;-7.57;43.49
36514;BME280;66331;46.796;9.824;2023-02-01T04:00:57;84870.89;;;-7.35;42.84
36514;BME280;66331;46.796;9.824;2023-02-01T04:03:25;84877.51;;;-8.82;45.66
36514;BME280;66331;46.796;9.824;2023-02-01T04:05:53;84874.87;;;-8.03;44.35
36514;BME280;66331;46.796;9.824;2023-02-01T04:08:21;84875.64;;;-8.58;44.72
36514;BME280;66331;46.796;9.824;2023-02-01T04:10:49;84874.51;;;-8.54;44.93
36514;BME280;66331;46.796;9.824;2023-02-01T04:13:16;84880.17;;;-9.06;45.33
36514;BME280;66331;46.796;9.824;2023-02-01T04:15:43;84876.81;;;-7.67;43.79
36514;BME280;66331;46.796;9.824;2023-02-01T04:18:10;84873.56;;;-7.73;44.11
36514;BME280;66331;46.796;9.824;2023-02-01T04:20:38;84870.00;;;-7.20;42.85
36514;BME280;66331;46.796;9.824;2023-02-01T04:23:05;84871.24;;;-7.76;43.56
36514;BME280;66331;46.796;9.824;2023-02-01T04:25:32;84871.98;;;-7.89;43.88
36514;BME280;66331;46.796;9.824;2023-02-01T04:27:59;84867.40;;;-7.73;42.73
36514;BME280;66331;46.796;9.824;2023-02-01T04:30:27;84868.99;;;-7.75;42.04
36514;BME280;66331;46.796;9.824;2023-02-01T04:32:54;84871.21;;;-8.00;42.52
36514;BME280;66331;46.796;9.824;2023-02-01T04:35:21;84873.92;;;-8.09;43.27
36514;BME280;66331;46.796;9.824;2023-02-01T04:37:49;84877.96;;;-8.11;43.37
36514;BME280;66331;46.796;9.824;2023-02-01T04:40:16;84877.05;;;-8.60;43.97
36514;BME280;66331;46.796;9.824;2023-02-01T04:42:43;84870.56;;;-7.29;41.48
36514;BME280;66331;46.796;9.824;2023-02-01T04:45:11;84872.70;;;-8.98;44.99
36514;BME280;66331;46.796;9.824;2023-02-01T04:47:37;84866.10;;;-8.73;44.49
36514;BME280;66331;46.796;9.824;2023-02-01T04:50:06;84866.80;;;-8.25;43.48
36514;BME280;66331;46.796;9.824;2023-02-01T04:52:33;84869.72;;;-7.73;42.69
36514;BME280;66331;46.796;9.824;2023-02-01T04:55:00;84864.50;;;-8.12;43.00
36514;BME280;66331;46.796;9.824;2023-02-01T04:57:27;84865.73;;;-8.80;44.55
36514;BME280;66331;46.796;9.824;2023-02-01T04:59:55;84857.89;;;-8.50;43.29
36514;BME280;66331;46.796;9.824;2023-02-01T05:02:23;84858.37;;;-9.56;45.59
36514;BME280;66331;46.796;9.824;2023-02-01T05:04:50;84856.63;;;-8.48;43.39
36514;BME280;66331;46.796;9.824;2023-02-01T05:07:17;84858.36;;;-8.84;43.18
36514;BME280;66331;46.796;9.824;2023-02-01T05:09:45;84851.07;;;-8.72;43.65
36514;BME280;66331;46.796;9.824;2023-02-01T05:12:12;84846.37;;;-8.63;43.67
36514;BME280;66331;46.796;9.824;2023-02-01T05:14:39;84849.00;;;-8.84;44.34
36514;BME280;66331;46.796;9.824;2023-02-01T05:17:06;84846.45;;;-7.84;43.12
36514;BME280;66331;46.796;9.824;2023-02-01T05:19:34;84853.53;;;-9.03;44.51
36514;BME280;66331;46.796;9.824;2023-02-01T05:22:01;84854.75;;;-9.87;46.99
36514;BME280;66331;46.796;9.824;2023-02-01T05:24:28;84856.51;;;-9.34;45.26
36514;BME280;66331;46.796;9.824;2023-02-01T05:26:56;84855.26;;;-9.25;45.17
36514;BME280;66331;46.796;9.824;2023-02-01T05:29:23;84854.99;;;-9.29;44.75
36514;BME280;66331;46.796;9.824;2023-02-01T05:31:50;84856.41;;;-9.71;46.45
36514;BME280;66331;46.796;9.824;2023-02-01T05:34:17;84854.24;;;-8.85;45.07
36514;BME280;66331;46.796;9.824;2023-02-01T05:36:45;84850.81;;;-8.70;44.23
36514;BME280;66331;46.796;9.824;2023-02-01T05:39:12;84856.01;;;-9.16;44.76
36514;BME280;66331;46.796;9.824;2023-02-01T05:41:39;84858.72;;;-8.83;44.22
36514;BME280;66331;46.796;9.824;2023-02-01T05:44:06;84859.19;;;-8.78;43.67
36514;BME280;66331;46.796;9.824;2023-02-01T05:46:34;84862.23;;;-9.11;43.76
36514;BME280;66331;46.796;9.824;2023-02-01T05:49:01;84860.29;;;-8.72;43.43
36514;BME280;66331;46.796;9.824;2023-02-01T05:51:28;84864.44;;;-9.24;44.37
36514;BME280;66331;46.796;9.824;2023-02-01T05:53:55;84866.04;;;-9.03;44.02
36514;BME280;66331;46.796;9.824;2023-02-01T05:56:23;84868.01;;;-9.23;44.42
36514;BME280;66331;46.796;9.824;2023-02-01T05:58:50;84872.07;;;-9.20;44.26
36514;BME280;66331;46.796;9.824;2023-02-01T06:01:18;84872.94;;;-8.64;43.31
36514;BME280;66331;46.796;9.824;2023-02-01T06:03:45;84876.78;;;-8.69;43.28
36514;BME280;66331;46.796;9.824;2023-02-01T06:06:12;84884.55;;;-8.67;43.37
36514;BME280;66331;46.796;9.824;2023-02-01T06:08:39;84889.20;;;-8.81;43.39
36514;BME280;66331;46.796;9.824;2023-02-01T06:11:07;84898.80;;;-9.14;43.37
36514;BME280;66331;46.796;9.824;2023-02-01T06:13:34;84905.60;;;-9.14;43.79
36514;BME280;66331;46.796;9.824;2023-02-01T06:16:01;84911.47;;;-8.97;43.50
36514;BME280;66331;46.796;9.824;2023-02-01T06:18:29;84916.37;;;-8.86;43.08
36514;BME280;66331;46.796;9.824;2023-02-01T06:20:58;84916.47;;;-8.34;42.71
36514;BME280;66331;46.796;9.824;2023-02-01T06:23:26;84918.36;;;-9.25;43.97
36514;BME280;66331;46.796;9.824;2023-02-01T06:25:59;84919.63;;;-9.39;44.83
36514;BME280;66331;46.796;9.824;2023-02-01T06:28:26;84923.77;;;-8.73;43.40
36514;BME280;66331;46.796;9.824;2023-02-01T06:30:53;84922.38;;;-9.01;43.53
36514;BME280;66331;46.796;9.824;2023-02-01T06:33:21;84929.41;;;-8.74;43.37
36514;BME280;66331;46.796;9.824;2023-02-01T06:35:48;84925.51;;;-8.94;43.50
36514;BME280;66331;46.796;9.824;2023-02-01T06:38:15;84923.13;;;-8.87;43.51
36514;BME280;66331;46.796;9.824;2023-02-01T06:40:42;84916.84;;;-9.07;43.92
36514;BME280;66331;46.796;9.824;2023-02-01T06:43:10;84911.59;;;-9.49;44.77
36514;BME280;66331;46.796;9.824;2023-02-01T06:45:37;84911.98;;;-10.85;47.05
36514;BME280;66331;46.796;9.824;2023-02-01T06:48:05;84919.47;;;-9.17;43.79
36514;BME280;66331;46.796;9.824;2023-02-01T06:50:31;84921.16;;;-8.62;43.32
36514;BME280;66331;46.796;9.824;2023-02-01T06:53:00;84915.58;;;-8.38;42.54
36514;BME280;66331;46.796;9.824;2023-02-01T06:55:27;84916.94;;;-8.49;42.94
36514;BME280;66331;46.796;9.824;2023-02-01T06:57:54;84917.62;;;-8.73;44.16
36514;BME280;66331;46.796;9.824;2023-02-01T07:00:23;84913.88;;;-8.07;43.14
36514;BME280;66331;46.796;9.824;2023-02-01T07:02:50;84925.99;;;-8.67;44.04
36514;BME280;66331;46.796;9.824;2023-02-01T07:05:17;84933.64;;;-8.68;43.90
36514;BME280;66331;46.796;9.824;2023-02-01T07:07:44;84939.35;;;-8.52;41.99
36514;BME280;66331;46.796;9.824;2023-02-01T07:10:11;84946.01;;;-8.35;41.76
36514;BME280;66331;46.796;9.824;2023-02-01T07:12:39;84942.27;;;-8.33;42.47
36514;BME280;66331;46.796;9.824;2023-02-01T07:15:07;84935.88;;;-7.95;41.46
36514;BME280;66331;46.796;9.824;2023-02-01T07:17:34;84936.94;;;-7.93;41.31
36514;BME280;66331;46.796;9.824;2023-02-01T07:20:02;84939.31;;;-7.99;41.30
36514;BME280;66331;46.796;9.824;2023-02-01T07:22:30;84943.42;;;-8.65;42.14
36514;BME280;66331;46.796;9.824;2023-02-01T07:24:58;84944.64;;;-9.41;44.69
36514;BME280;66331;46.796;9.824;2023-02-01T07:27:25;84940.40;;;-9.25;43.27
36514;BME280;66331;46.796;9.824;2023-02-01T07:29:52;84939.63;;;-8.53;42.49
36514;BME280;66331;46.796;9.824;2023-02-01T07:32:20;84943.80;;;-9.13;44.29
36514;BME280;66331;46.796;9.824;2023-02-01T07:34:47;84951.55;;;-9.37;44.26
36514;BME280;66331;46.796;9.824;2023-02-01T07:37:14;84945.83;;;-7.81;41.34
36514;BME280;66331;46.796;9.824;2023-02-01T07:39:41;84949.88;;;-8.91;42.13
36514;BME280;66331;46.796;9.824;2023-02-01T07:42:09;84950.96;;;-8.60;42.71
36514;BME280;66331;46.796;9.824;2023-02-01T07:44:36;84953.59;;;-8.47;42.90
36514;BME280;66331;46.796;9.824;2023-02-01T07:47:03;84956.08;;;-8.74;42.44
36514;BME280;66331;46.796;9.824;2023-02-01T07:49:32;84959.01;;;-8.62;42.19
36514;BME280;66331;46.796;9.824;2023-02-01T07:51:59;84960.58;;;-8.57;41.57
36514;BME280;66331;46.796;9.824;2023-02-01T07:54:26;84965.16;;;-8.61;42.25
36514;BME280;66331;46.796;9.824;2023-02-01T07:56:54;84965.15;;;-8.59;41.41
36514;BME280;66331;46.796;9.824;2023-02-01T07:59:21;84968.88;;;-8.02;41.29
36514;BME280;66331;46.796;9.824;2023-02-01T08:01:49;84970.08;;;-7.56;40.83
36514;BME280;66331;46.796;9.824;2023-02-01T08:04:16;84972.11;;;-7.19;40.08
36514;BME280;66331;46.796;9.824;2023-02-01T08:06:43;84973.80;;;-8.62;41.76
36514;BME280;66331;46.796;9.824;2023-02-01T08:09:10;84974.32;;;-7.54;42.06
36514;BME280;66331;46.796;9.824;2023-02-01T08:11:37;84973.54;;;-7.74;42.57
36514;BME280;66331;46.796;9.824;2023-02-01T08:14:05;84974.87;;;-7.96;42.43
36514;BME280;66331;46.796;9.824;2023-02-01T08:16:32;84978.14;;;-9.19;44.67
36514;BME280;66331;46.796;9.824;2023-02-01T08:18:59;84979.55;;;-9.66;45.42
36514;BME280;66331;46.796;9.824;2023-02-01T08:21:28;84977.86;;;-8.15;42.53
36514;BME280;66331;46.796;9.824;2023-02-01T08:23:55;84978.94;;;-8.55;42.95
36514;BME280;66331;46.796;9.824;2023-02-01T08:26:23;84978.51;;;-7.53;41.68
36514;BME280;66331;46.796;9.824;2023-02-01T08:28:53;84980.00;;;-7.80;42.28
36514;BME280;66331;46.796;9.824;2023-02-01T08:31:22;84977.95;;;-7.50;41.55
36514;BME280;66331;46.796;9.824;2023-02-01T08:33:52;84979.96;;;-7.55;41.62
36514;BME280;66331;46.796;9.824;2023-02-01T08:36:20;84976.15;;;-7.63;41.25
36514;BME280;66331;46.796;9.824;2023-02-01T08:38:48;84970.17;;;-7.02;40.72
36514;BME280;66331;46.796;9.824;2023-02-01T08:41:17;84967.62;;;-6.85;40.46
36514;BME280;66331;46.796;9.824;2023-02-01T08:43:45;84971.32;;;-7.84;41.67
36514;BME280;66331;46.796;9.824;2023-02-01T08:46:12;84975.35;;;-7.22;41.10
36514;BME280;66331;46.796;9.824;2023-02-01T08:48:41;84978.70;;;-8.17;42.96
36514;BME280;66331;46.796;9.824;2023-02-01T08:51:10;84976.19;;;-7.03;41.21
36514;BME280;66331;46.796;9.824;2023-02-01T08:53:44;84968.74;;;-6.44;39.80
36514;BME280;66331;46.796;9.824;2023-02-01T08:56:13;84967.62;;;-6.37;39.92
36514;BME280;66331;46.796;9.824;2023-02-01T08:58:41;84965.56;;;-5.58;38.65
36514;BME280;66331;46.796;9.824;2023-02-01T09:01:14;84968.92;;;-7.00;41.71
36514;BME280;66331;46.796;9.824;2023-02-01T09:03:54;84973.73;;;-6.77;40.64
36514;BME280;66331;46.796;9.824;2023-02-01T09:06:27;84971.50;;;-6.53;40.98
36514;BME280;66331;46.796;9.824;2023-02-01T09:08:54;84971.35;;;-6.03;39.87
36514;BME280;66331;46.796;9.824;2023-02-01T09:11:22;84969.57;;;-4.70;38.58
36514;BME280;66331;46.796;9.824;2023-02-01T09:13:49;84967.16;;;-4.54;36.97
36514;BME280;66331;46.796;9.824;2023-02-01T09:16:17;84970.28;;;-5.00;37.02
36514;BME280;66331;46.796;9.824;2023-02-01T09:18:50;84971.63;;;-4.62;37.57
36514;BME280;66331;46.796;9.824;2023-02-01T09:21:59;84968.75;;;-5.37;38.34
36514;BME280;66331;46.796;9.824;2023-02-01T09:24:32;84970.31;;;-4.17;36.17
36514;BME280;66331;46.796;9.824;2023-02-01T09:27:14;84967.86;;;-3.65;36.55
36514;BME280;66331;46.796;9.824;2023-02-01T09:29:41;84967.01;;;-5.27;39.85
36514;BME280;66331;46.796;9.824;2023-02-01T09:32:08;84965.77;;;-5.45;39.55
36514;BME280;66331;46.796;9.824;2023-02-01T09:34:35;84960.49;;;-4.94;39.40
36514;BME280;66331;46.796;9.824;2023-02-01T09:37:02;84956.96;;;-5.49;39.56
36514;BME280;66331;46.796;9.824;2023-02-01T09:39:30;84967.27;;;-4.18;37.87
36514;BME280;66331;46.796;9.824;2023-02-01T09:42:04;84958.60;;;-3.39;35.99
36514;BME280;66331;46.796;9.824;2023-02-01T09:44:45;84960.38;;;-4.45;37.91
36514;BME280;66331;46.796;9.824;2023-02-01T09:47:19;84961.05;;;-3.61;35.72
36514;BME280;66331;46.796;9.824;2023-02-01T09:49:54;84961.19;;;-3.46;34.88
36514;BME280;66331;46.796;9.824;2023-02-01T09:52:27;84964.08;;;-2.70;33.75
36514;BME280;66331;46.796;9.824;2023-02-01T09:55:01;84962.87;;;-3.07;34.21
36514;BME280;66331;46.796;9.824;2023-02-01T09:57:41;84955.35;;;-2.32;31.76
36514;BME280;66331;46.796;9.824;2023-02-01T10:00:17;84957.20;;;-1.95;31.28
36514;BME280;66331;46.796;9.824;2023-02-01T10:02:46;84963.51;;;-2.24;31.84
36514;BME280;66331;46.796;9.824;2023-02-01T10:05:15;84968.15;;;-2.49;32.92
36514;BME280;66331;46.796;9.824;2023-02-01T10:07:48;84971.09;;;-2.51;33.37
36514;BME280;66331;46.796;9.824;2023-02-01T10:10:26;84970.07;;;-1.78;35.04
36514;BME280;66331;46.796;9.824;2023-02-01T10:13:12;84972.37;;;-1.96;35.31
36514;BME280;66331;46.796;9.824;2023-02-01T10:15:52;84973.03;;;-0.94;35.81
36514;BME280;66331;46.796;9.824;2023-02-01T10:18:45;84978.14;;;-1.22;36.86
36514;BME280;66331;46.796;9.824;2023-02-01T10:21:26;84983.46;;;-1.05;37.37
36514;BME280;66331;46.796;9.824;2023-02-01T10:24:06;84991.03;;;-1.91;37.96
36514;BME280;66331;46.796;9.824;2023-02-01T10:26:42;84989.75;;;-1.87;38.11
36514;BME280;66331;46.796;9.824;2023-02-01T10:29:15;84989.13;;;-1.78;38.44
36514;BME280;66331;46.796;9.824;2023-02-01T10:31:45;84982.67;;;-1.28;38.01
36514;BME280;66331;46.796;9.824;2023-02-01T10:34:18;84973.21;;;-1.12;38.25
36514;BME280;66331;46.796;9.824;2023-02-01T10:36:54;84971.59;;;-1.78;39.25
36514;BME280;66331;46.796;9.824;2023-02-01T10:39:22;84969.04;;;-1.52;38.87
36514;BME280;66331;46.796;9.824;2023-02-01T10:41:50;84963.77;;;-1.04;37.86
36514;BME280;66331;46.796;9.824;2023-02-01T10:44:24;84962.25;;;-1.29;38.78
36514;BME280;66331;46.796;9.824;2023-02-01T10:46:51;84962.20;;;-1.21;38.87
36514;BME280;66331;46.796;9.824;2023-02-01T10:49:22;84954.35;;;-1.20;38.29
36514;BME280;66331;46.796;9.824;2023-02-01T10:51:55;84945.74;;;-0.70;38.39
36514;BME280;66331;46.796;9.824;2023-02-01T10:54:33;84944.64;;;-0.62;37.91
36514;BME280;66331;46.796;9.824;2023-02-01T10:57:00;84942.40;;;-0.15;37.23
36514;BME280;66331;46.796;9.824;2023-02-01T10:59:29;84936.00;;;-0.35;37.24
36514;BME280;66331;46.796;9.824;2023-02-01T11:01:59;84936.60;;;-0.37;37.78
36514;BME280;66331;46.796;9.824;2023-02-01T11:04:30;84937.76;;;-0.61;37.55
36514;BME280;66331;46.796;9.824;2023-02-01T11:07:06;84934.39;;;-0.48;37.70
36514;BME280;66331;46.796;9.824;2023-02-01T11:09:39;84929.87;;;-0.97;37.71
36514;BME280;66331;46.796;9.824;2023-02-01T11:12:22;84925.53;;;-0.08;37.11
36514;BME280;66331;46.796;9.824;2023-02-01T11:14:50;84922.31;;;-0.08;36.77
36514;BME280;66331;46.796;9.824;2023-02-01T11:17:24;84922.47;;;0.29;37.00
36514;BME280;66331;46.796;9.824;2023-02-01T11:19:57;84918.66;;;-0.26;37.61
36514;BME280;66331;46.796;9.824;2023-02-01T11:22:25;84922.45;;;-0.30;37.26
36514;BME280;66331;46.796;9.824;2023-02-01T11:24:53;84914.84;;;0.16;36.82
36514;BME280;66331;46.796;9.824;2023-02-01T11:27:22;84912.09;;;0.08;37.00
36514;BME280;66331;46.796;9.824;2023-02-01T11:29:52;84905.72;;;-0.02;37.02
36514;BME280;66331;46.796;9.824;2023-02-01T11:32:21;84898.66;;;0.09;36.88
36514;BME280;66331;46.796;9.824;2023-02-01T11:34:52;84886.76;;;0.37;36.63
36514;BME280;66331;46.796;9.824;2023-02-01T11:37:23;84902.54;;;0.18;36.62
36514;BME280;66331;46.796;9.824;2023-02-01T11:39:54;84908.59;;;-0.62;37.27
36514;BME280;66331;46.796;9.824;2023-02-01T11:42:22;84902.09;;;-0.34;36.96
36514;BME280;66331;46.796;9.824;2023-02-01T11:44:50;84904.01;;;-0.62;38.21
36514;BME280;66331;46.796;9.824;2023-02-01T11:47:21;84906.85;;;-1.22;37.89
36514;BME280;66331;46.796;9.824;2023-02-01T11:49:50;84911.53;;;-1.24;38.63
36514;BME280;66331;46.796;9.824;2023-02-01T11:52:27;84912.18;;;-1.17;38.51
36514;BME280;66331;46.796;9.824;2023-02-01T11:55:06;84908.69;;;-1.36;38.99
36514;BME280;66331;46.796;9.824;2023-02-01T11:57:45;84899.41;;;-1.01;38.09
36514;BME280;66331;46.796;9.824;2023-02-01T12:00:34;84886.76;;;-0.26;37.94
36514;BME280;66331;46.796;9.824;2023-02-01T12:03:30;84878.78;;;0.51;36.63
36514;BME280;66331;46.796;9.824;2023-02-01T12:06:08;84876.22;;;-0.14;36.66
36514;BME280;66331;46.796;9.824;2023-02-01T12:08:52;84864.25;;;-0.20;36.15
36514;BME280;66331;46.796;9.824;2023-02-01T12:11:39;84860.19;;;-0.01;35.36
36514;BME280;66331;46.796;9.824;2023-02-01T12:14:22;84858.26;;;-0.07;35.28
36514;BME280;66331;46.796;9.824;2023-02-01T12:17:05;84858.10;;;0.34;35.17
36514;BME280;66331;46.796;9.824;2023-02-01T12:19:54;84852.04;;;-0.03;35.64
36514;BME280;66331;46.796;9.824;2023-02-01T12:22:36;84843.78;;;-0.24;36.42
36514;BME280;66331;46.796;9.824;2023-02-01T12:25:20;84834.94;;;0.38;36.41
36514;BME280;66331;46.796;9.824;2023-02-01T12:28:02;84836.77;;;1.10;35.76
36514;BME280;66331;46.796;9.824;2023-02-01T12:30:46;84834.12;;;0.77;35.22
36514;BME280;66331;46.796;9.824;2023-02-01T12:33:23;84834.47;;;0.35;34.24
36514;BME280;66331;46.796;9.824;2023-02-01T12:36:06;84834.97;;;1.05;33.89
36514;BME280;66331;46.796;9.824;2023-02-01T12:38:45;84825.89;;;1.32;33.02
36514;BME280;66331;46.796;9.824;2023-02-01T12:41:26;84822.07;;;0.15;35.09
36514;BME280;66331;46.796;9.824;2023-02-01T12:43:59;84816.69;;;-0.06;36.01
36514;BME280;66331;46.796;9.824;2023-02-01T12:46:30;84816.63;;;-0.34;37.02
36514;BME280;66331;46.796;9.824;2023-02-01T12:49:02;84811.52;;;0.06;36.52
36514;BME280;66331;46.796;9.824;2023-02-01T12:51:35;84805.21;;;-0.45;37.05
36514;BME280;66331;46.796;9.824;2023-02-01T12:54:06;84793.52;;;-0.10;36.86
36514;BME280;66331;46.796;9.824;2023-02-01T12:56:40;84798.35;;;0.06;35.54
36514;BME280;66331;46.796;9.824;2023-02-01T12:59:16;84796.36;;;0.03;36.29
36514;BME280;66331;46.796;9.824;2023-02-01T13:01:48;84795.55;;;0.06;36.54
36514;BME280;66331;46.796;9.824;2023-02-01T13:04:20;84795.92;;;0.24;35.62
36514;BME280;66331;46.796;9.824;2023-02-01T13:06:52;84795.52;;;-0.33;36.85
36514;BME280;66331;46.796;9.824;2023-02-01T13:09:26;84792.97;;;-0.51;37.36
36514;BME280;66331;46.796;9.824;2023-02-01T13:11:59;84790.27;;;-1.13;38.54
36514;BME280;66331;46.796;9.824;2023-02-01T13:14:33;84784.33;;;-0.66;37.69
36514;BME280;66331;46.796;9.824;2023-02-01T13:17:05;84778.02;;;-0.51;36.93
36514;BME280;66331;46.796;9.824;2023-02-01T13:19:42;84776.99;;;-0.38;36.09